createdAt,value
2017-09-13T00:01:29.674Z,11.60
2017-09-13T00:03:57.779Z,11.60
2017-09-13T00:06:26.662Z,11.50
2017-09-13T00:08:54.738Z,11.50
2017-09-13T00:11:22.819Z,11.50
2017-09-13T00:13:51.695Z,11.50
2017-09-13T00:16:19.775Z,11.50
2017-09-13T00:18:47.951Z,11.60
2017-09-13T00:21:16.790Z,11.60
2017-09-13T00:23:44.902Z,11.60
2017-09-13T00:26:13.082Z,11.60
2017-09-13T00:28:41.567Z,11.70
2017-09-13T00:31:09.655Z,11.60
2017-09-13T00:33:37.806Z,11.60
2017-09-13T00:36:06.301Z,11.70
2017-09-13T00:38:34.873Z,11.70
2017-09-13T00:41:02.946Z,11.60
2017-09-13T00:43:31.118Z,11.60
2017-09-13T00:45:59.606Z,11.60
2017-09-13T00:48:28.490Z,11.70
2017-09-13T00:50:56.667Z,11.60
2017-09-13T00:53:24.782Z,11.60
2017-09-13T00:55:53.738Z,11.60
2017-09-13T00:58:21.814Z,11.60
2017-09-13T01:00:51.517Z,11.60
2017-09-13T01:03:19.686Z,11.60
2017-09-13T01:05:47.866Z,11.60
2017-09-13T01:08:15.970Z,11.60
2017-09-13T01:10:44.810Z,11.50
2017-09-13T01:13:12.906Z,11.50
2017-09-13T01:15:41.766Z,11.50
2017-09-13T01:18:09.962Z,11.50
2017-09-13T01:20:38.039Z,11.50
2017-09-13T01:23:06.115Z,11.50
2017-09-13T01:25:34.283Z,11.50
2017-09-13T01:28:02.374Z,11.50
2017-09-13T01:30:30.526Z,11.60
2017-09-13T01:32:58.711Z,11.60
2017-09-13T01:35:26.879Z,11.60
2017-09-13T01:37:55.046Z,11.60
2017-09-13T01:40:23.223Z,11.60
2017-09-13T01:42:51.708Z,11.60
2017-09-13T01:45:19.879Z,11.50
2017-09-13T01:48:03.791Z,11.50
2017-09-13T01:50:31.900Z,11.50
2017-09-13T01:53:00.067Z,11.60
2017-09-13T01:55:28.247Z,11.60
2017-09-13T01:57:56.826Z,11.70
2017-09-13T02:00:24.987Z,11.70
2017-09-13T02:02:53.174Z,11.60
2017-09-13T02:05:21.262Z,11.70
2017-09-13T02:07:49.830Z,11.70
2017-09-13T02:10:18.726Z,11.70
2017-09-13T02:12:46.894Z,11.80
2017-09-13T02:15:15.483Z,11.80
2017-09-13T02:17:43.654Z,11.80
2017-09-13T02:20:11.826Z,11.90
2017-09-13T02:22:40.007Z,11.90
2017-09-13T02:25:08.183Z,11.90
2017-09-13T02:27:36.355Z,12.00
2017-09-13T02:30:04.832Z,12.00
2017-09-13T02:32:33.006Z,12.00
2017-09-13T02:35:01.479Z,12.00
2017-09-13T02:37:29.557Z,12.10
2017-09-13T02:39:58.459Z,12.10
2017-09-13T02:42:26.626Z,12.10
2017-09-13T02:44:54.807Z,12.10
2017-09-13T02:47:22.974Z,12.20
2017-09-13T02:49:51.457Z,12.20
2017-09-13T02:52:19.630Z,12.30
2017-09-13T02:54:47.736Z,12.30
2017-09-13T02:57:15.811Z,12.40
2017-09-13T02:59:44.278Z,12.30
2017-09-13T03:02:12.370Z,12.40
2017-09-13T03:04:41.409Z,12.40
2017-09-13T03:07:09.902Z,12.50
2017-09-13T03:09:38.379Z,12.40
2017-09-13T03:12:06.567Z,12.40
2017-09-13T03:14:34.662Z,12.40
2017-09-13T03:17:03.134Z,12.50
2017-09-13T03:19:31.287Z,12.50
2017-09-13T03:21:59.462Z,12.50
2017-09-13T03:24:27.538Z,12.50
2017-09-13T03:26:55.706Z,12.50
2017-09-13T03:29:23.891Z,12.60
2017-09-13T03:31:52.059Z,12.60
2017-09-13T03:34:20.234Z,12.60
2017-09-13T03:36:48.343Z,12.70
2017-09-13T03:39:17.298Z,12.70
2017-09-13T03:41:45.375Z,12.70
2017-09-13T03:44:13.495Z,12.80
2017-09-13T03:46:41.587Z,12.80
2017-09-13T03:49:09.663Z,12.80
2017-09-13T03:51:37.869Z,12.80
2017-09-13T03:54:06.039Z,12.80
2017-09-13T03:56:34.114Z,12.80
2017-09-13T03:59:02.286Z,12.80
2017-09-13T04:01:30.454Z,12.70
2017-09-13T04:03:58.631Z,12.70
2017-09-13T04:06:26.743Z,12.70
2017-09-13T04:08:55.695Z,12.70
2017-09-13T04:11:23.895Z,12.70
2017-09-13T04:13:52.043Z,12.70
2017-09-13T04:16:20.131Z,12.70
2017-09-13T04:18:48.227Z,12.70
2017-09-13T04:21:17.078Z,12.70
2017-09-13T04:23:45.251Z,12.70
2017-09-13T04:26:14.132Z,12.60
2017-09-13T04:28:42.218Z,12.60
2017-09-13T04:31:10.395Z,12.60
2017-09-13T04:33:38.475Z,12.60
2017-09-13T04:36:06.636Z,12.60
2017-09-13T04:38:34.819Z,12.60
2017-09-13T04:41:02.919Z,12.60
2017-09-13T04:43:31.057Z,12.60
2017-09-13T04:45:59.231Z,12.60
2017-09-13T04:48:27.408Z,12.60
2017-09-13T04:50:55.578Z,12.60
2017-09-13T04:53:23.751Z,12.60
2017-09-13T04:55:52.610Z,12.60
2017-09-13T04:58:20.702Z,12.80
2017-09-13T05:00:48.898Z,12.90
2017-09-13T05:03:16.970Z,12.90
2017-09-13T05:05:45.055Z,12.90
2017-09-13T05:08:13.154Z,12.90
2017-09-13T05:10:41.728Z,13.00
2017-09-13T05:13:09.766Z,12.90
2017-09-13T05:15:37.837Z,12.90
2017-09-13T05:18:05.947Z,12.90
2017-09-13T05:20:34.415Z,13.00
2017-09-13T05:23:02.912Z,13.00
2017-09-13T05:25:31.802Z,13.00
2017-09-13T05:28:00.646Z,13.10
2017-09-13T05:30:28.830Z,13.00
2017-09-13T05:32:56.952Z,13.10
2017-09-13T05:35:25.070Z,13.10
2017-09-13T05:37:53.151Z,13.00
2017-09-13T05:40:21.323Z,13.00
2017-09-13T05:42:49.398Z,13.00
2017-09-13T05:45:17.475Z,12.90
2017-09-13T05:47:45.634Z,12.90
2017-09-13T05:50:13.807Z,12.80
2017-09-13T05:52:41.890Z,12.80
2017-09-13T05:55:10.041Z,12.80
2017-09-13T05:57:38.838Z,12.80
2017-09-13T06:00:06.953Z,12.80
2017-09-13T06:02:35.022Z,12.80
2017-09-13T06:05:03.881Z,12.80
2017-09-13T06:07:32.371Z,12.80
2017-09-13T06:10:00.843Z,12.90
2017-09-13T06:12:28.943Z,12.90
2017-09-13T06:14:57.023Z,12.80
2017-09-13T06:17:25.561Z,12.80
2017-09-13T06:19:53.749Z,12.80
2017-09-13T06:22:21.822Z,12.70
2017-09-13T06:24:49.995Z,12.70
2017-09-13T06:27:18.102Z,12.60
2017-09-13T06:29:46.578Z,12.60
2017-09-13T06:32:15.419Z,12.60
2017-09-13T06:34:43.610Z,12.60
2017-09-13T06:37:11.787Z,12.60
2017-09-13T06:39:39.907Z,12.60
2017-09-13T06:42:07.988Z,12.60
2017-09-13T06:44:36.107Z,12.60
2017-09-13T06:47:04.614Z,12.70
2017-09-13T06:49:32.683Z,12.70
2017-09-13T06:52:00.767Z,12.60
2017-09-13T06:54:29.636Z,12.80
2017-09-13T06:56:57.777Z,12.80
2017-09-13T06:59:26.578Z,12.80
2017-09-13T07:01:55.066Z,12.90
2017-09-13T07:04:23.175Z,12.90
2017-09-13T07:06:51.643Z,13.10
2017-09-13T07:09:19.776Z,13.10
2017-09-13T07:11:48.607Z,13.10
2017-09-13T07:14:16.683Z,13.10
2017-09-13T07:16:45.159Z,13.10
2017-09-13T07:19:13.458Z,13.10
2017-09-13T07:21:42.307Z,13.20
2017-09-13T07:24:10.399Z,13.40
2017-09-13T07:26:38.480Z,13.40
2017-09-13T07:29:07.434Z,13.40
2017-09-13T07:31:35.610Z,13.40
2017-09-13T07:34:03.686Z,13.50
2017-09-13T07:36:32.271Z,13.30
2017-09-13T07:39:00.346Z,13.20
2017-09-13T07:41:28.510Z,13.20
2017-09-13T07:43:56.967Z,13.20
2017-09-13T07:46:25.071Z,13.20
2017-09-13T07:48:53.146Z,13.20
2017-09-13T07:51:21.351Z,13.20
2017-09-13T07:53:50.192Z,13.10
2017-09-13T07:56:19.094Z,13.20
2017-09-13T07:58:47.983Z,13.20
2017-09-13T08:01:16.065Z,13.20
2017-09-13T08:03:44.134Z,13.20
2017-09-13T08:06:12.304Z,13.20
2017-09-13T08:08:40.791Z,13.30
2017-09-13T08:11:08.959Z,13.30
2017-09-13T08:13:37.059Z,13.40
2017-09-13T08:16:05.923Z,13.40
2017-09-13T08:18:34.102Z,13.40
2017-09-13T08:21:02.683Z,13.50
2017-09-13T08:23:30.861Z,13.50
2017-09-13T08:25:59.035Z,13.60
2017-09-13T08:28:27.206Z,13.60
2017-09-13T08:30:55.694Z,13.70
2017-09-13T08:33:25.291Z,13.70
2017-09-13T08:35:53.783Z,13.80
2017-09-13T08:38:21.966Z,13.80
2017-09-13T08:40:50.127Z,13.80
2017-09-13T08:43:18.200Z,13.80
2017-09-13T08:45:47.088Z,13.80
2017-09-13T08:48:15.258Z,13.90
2017-09-13T08:50:43.335Z,13.90
2017-09-13T08:53:12.203Z,13.90
2017-09-13T08:55:40.282Z,13.90
2017-09-13T08:58:08.384Z,13.90
2017-09-13T09:00:36.546Z,13.90
2017-09-13T09:03:04.719Z,14.00
2017-09-13T09:05:33.578Z,14.00
2017-09-13T09:08:02.487Z,14.00
2017-09-13T09:10:31.387Z,14.10
2017-09-13T09:12:59.567Z,14.20
2017-09-13T09:15:28.451Z,14.20
2017-09-13T09:17:56.623Z,14.20
2017-09-13T09:20:24.809Z,14.20
2017-09-13T09:22:53.382Z,14.20
2017-09-13T09:25:21.478Z,14.20
2017-09-13T09:27:51.067Z,14.20
2017-09-13T09:30:19.932Z,14.20
2017-09-13T09:32:48.134Z,14.20
2017-09-13T09:35:16.970Z,14.20
2017-09-13T09:37:45.826Z,14.20
2017-09-13T09:40:14.334Z,14.30
2017-09-13T09:42:42.386Z,14.30
2017-09-13T09:45:10.506Z,14.30
2017-09-13T09:47:38.578Z,14.40
2017-09-13T09:50:07.418Z,14.40
2017-09-13T09:52:35.551Z,14.50
2017-09-13T09:55:03.651Z,14.50
2017-09-13T09:57:32.536Z,14.50
2017-09-13T10:00:00.655Z,14.40
2017-09-13T10:02:29.598Z,14.50
2017-09-13T10:04:57.775Z,14.50
2017-09-13T10:07:26.667Z,14.70
2017-09-13T10:09:54.743Z,14.80
2017-09-13T10:12:23.319Z,14.90
2017-09-13T10:14:51.496Z,14.80
2017-09-13T10:17:19.579Z,14.90
2017-09-13T10:19:47.747Z,14.90
2017-09-13T10:22:15.818Z,14.90
2017-09-13T10:24:44.286Z,14.90
2017-09-13T10:27:12.789Z,15.00
2017-09-13T10:29:41.639Z,15.00
2017-09-13T10:32:10.102Z,15.00
2017-09-13T10:34:38.208Z,15.00
2017-09-13T10:37:06.304Z,15.00
2017-09-13T10:39:34.402Z,15.00
2017-09-13T10:42:03.243Z,15.10
2017-09-13T10:44:31.314Z,15.10
2017-09-13T10:47:00.559Z,15.10
2017-09-13T10:49:28.630Z,15.10
2017-09-13T10:51:57.473Z,15.10
2017-09-13T10:54:25.563Z,15.10
2017-09-13T10:56:53.665Z,15.10
2017-09-13T10:59:21.726Z,15.10
2017-09-13T11:01:49.839Z,15.00
2017-09-13T11:04:17.919Z,15.10
2017-09-13T11:06:46.750Z,15.10
2017-09-13T11:09:14.858Z,15.20
2017-09-13T11:11:43.699Z,15.30
2017-09-13T11:14:11.770Z,15.30
2017-09-13T11:16:39.955Z,15.40
2017-09-13T11:19:08.129Z,15.40
2017-09-13T11:21:36.223Z,15.40
2017-09-13T11:24:04.376Z,15.60
2017-09-13T11:26:32.497Z,15.90
2017-09-13T11:29:01.372Z,16.30
2017-09-13T11:31:29.451Z,16.70
2017-09-13T11:33:58.328Z,17.00
2017-09-13T11:36:26.403Z,17.00
2017-09-13T11:38:55.271Z,17.70
2017-09-13T11:41:23.342Z,18.00
2017-09-13T11:43:51.428Z,18.40
2017-09-13T11:46:19.518Z,18.60
2017-09-13T11:48:48.007Z,18.70
2017-09-13T11:51:16.886Z,18.90
2017-09-13T11:53:45.724Z,19.00
2017-09-13T11:56:13.793Z,19.00
2017-09-13T11:58:41.942Z,18.80
2017-09-13T12:01:09.978Z,18.60
2017-09-13T12:03:38.543Z,18.60
2017-09-13T12:06:06.618Z,18.50
2017-09-13T12:08:34.696Z,18.50
2017-09-13T12:11:02.794Z,18.40
2017-09-13T12:13:31.659Z,18.40
2017-09-13T12:15:59.743Z,18.40
2017-09-13T12:18:29.351Z,18.40
2017-09-13T12:20:57.429Z,18.20
2017-09-13T12:23:25.502Z,18.20
2017-09-13T12:25:54.004Z,18.10
2017-09-13T12:28:22.851Z,18.10
2017-09-13T12:30:50.923Z,18.20
2017-09-13T12:33:19.023Z,18.30
2017-09-13T12:35:47.859Z,18.40
2017-09-13T12:38:15.950Z,18.40
2017-09-13T12:40:44.043Z,18.70
2017-09-13T12:43:12.520Z,18.90
2017-09-13T12:45:40.617Z,19.10
2017-09-13T12:48:09.486Z,20.00
2017-09-13T12:50:39.067Z,20.30
2017-09-13T12:53:07.942Z,20.40
2017-09-13T12:55:36.019Z,20.50
2017-09-13T12:58:04.103Z,20.80
2017-09-13T13:00:32.199Z,20.50
2017-09-13T13:03:00.275Z,20.40
2017-09-13T13:05:28.419Z,20.50
2017-09-13T13:07:56.599Z,20.50
2017-09-13T13:10:24.680Z,20.20
2017-09-13T13:12:54.306Z,19.90
2017-09-13T13:15:22.383Z,19.90
2017-09-13T13:17:51.223Z,19.70
2017-09-13T13:20:19.449Z,19.50
2017-09-13T13:22:47.495Z,19.50
2017-09-13T13:25:15.663Z,19.50
2017-09-13T13:27:43.775Z,19.50
2017-09-13T13:30:12.614Z,19.60
2017-09-13T13:32:40.802Z,19.50
2017-09-13T13:35:08.907Z,19.60
2017-09-13T13:37:37.759Z,19.80
2017-09-13T13:40:05.848Z,19.90
2017-09-13T13:42:33.958Z,19.90
2017-09-13T13:45:02.894Z,20.20
2017-09-13T13:47:31.655Z,20.20
2017-09-13T13:50:00.534Z,20.10
2017-09-13T13:52:28.664Z,20.00
2017-09-13T13:54:56.826Z,20.00
2017-09-13T13:57:24.999Z,20.20
2017-09-13T13:59:53.171Z,20.30
2017-09-13T14:02:21.251Z,20.50
2017-09-13T14:04:49.355Z,20.50
2017-09-13T14:07:18.199Z,20.60
2017-09-13T14:09:46.699Z,21.40
2017-09-13T14:12:14.783Z,22.00
2017-09-13T14:14:44.362Z,22.20
2017-09-13T14:17:12.463Z,22.20
2017-09-13T14:19:40.546Z,22.70
2017-09-13T14:22:09.503Z,23.20
2017-09-13T14:24:37.680Z,23.10
2017-09-13T14:27:05.855Z,22.20
2017-09-13T14:29:33.930Z,21.50
2017-09-13T14:32:02.770Z,21.10
2017-09-13T14:34:30.878Z,20.60
2017-09-13T14:36:58.963Z,20.10
2017-09-13T14:39:27.051Z,20.00
2017-09-13T14:41:55.147Z,20.00
2017-09-13T14:44:23.990Z,19.90
2017-09-13T14:46:52.090Z,19.80
2017-09-13T14:49:20.570Z,19.60
2017-09-13T14:51:48.654Z,19.50
2017-09-13T14:54:17.501Z,19.50
2017-09-13T14:56:45.587Z,19.40
2017-09-13T14:59:13.663Z,19.40
2017-09-13T15:01:41.826Z,19.20
2017-09-13T15:04:10.003Z,19.10
2017-09-13T15:06:38.078Z,19.00
2017-09-13T15:09:06.250Z,18.90
2017-09-13T15:11:34.427Z,18.80
2017-09-13T15:14:02.594Z,18.60
2017-09-13T15:16:31.076Z,18.50
2017-09-13T15:18:59.170Z,18.30
2017-09-13T15:21:27.252Z,18.10
2017-09-13T15:23:55.341Z,17.90
2017-09-13T15:26:24.227Z,17.70
2017-09-13T15:28:53.066Z,17.50
2017-09-13T15:31:21.148Z,17.30
2017-09-13T15:33:49.250Z,17.30
2017-09-13T15:36:17.332Z,17.30
2017-09-13T15:38:46.174Z,17.10
2017-09-13T15:41:14.283Z,17.00
2017-09-13T15:43:42.382Z,16.90
2017-09-13T15:46:10.854Z,16.80
2017-09-13T15:48:39.726Z,16.70
2017-09-13T15:51:08.219Z,16.60
2017-09-13T15:53:36.288Z,16.60
2017-09-13T15:56:05.167Z,16.60
2017-09-13T15:58:33.238Z,16.50
2017-09-13T16:01:01.311Z,16.50
2017-09-13T16:03:29.419Z,16.50
2017-09-13T16:05:57.885Z,16.50
2017-09-13T16:08:26.735Z,16.60
2017-09-13T16:10:55.239Z,16.60
2017-09-13T16:13:24.089Z,16.50
2017-09-13T16:15:52.162Z,16.50
2017-09-13T16:18:20.670Z,16.40
2017-09-13T16:20:50.260Z,16.20
2017-09-13T16:23:18.338Z,16.20
2017-09-13T16:25:46.435Z,16.20
2017-09-13T16:28:14.520Z,16.20
2017-09-13T16:30:43.461Z,16.20
2017-09-13T16:33:13.702Z,16.10
2017-09-13T16:35:41.775Z,16.10
2017-09-13T16:38:09.868Z,16.00
2017-09-13T16:40:37.942Z,15.90
2017-09-13T16:43:06.062Z,15.90
2017-09-13T16:45:34.144Z,15.90
2017-09-13T16:48:02.220Z,15.80
2017-09-13T16:50:30.319Z,15.80
2017-09-13T16:52:58.419Z,15.70
2017-09-13T16:55:27.268Z,15.70
2017-09-13T16:57:55.358Z,15.60
2017-09-13T17:00:23.456Z,15.60
2017-09-13T17:02:52.343Z,15.50
2017-09-13T17:05:21.192Z,15.40
2017-09-13T17:07:49.267Z,15.30
2017-09-13T17:10:17.382Z,15.20
2017-09-13T17:12:46.231Z,15.10
2017-09-13T17:15:14.402Z,15.00
2017-09-13T17:17:42.578Z,15.00
2017-09-13T17:20:10.751Z,14.90
2017-09-13T17:22:38.900Z,14.80
2017-09-13T17:25:06.983Z,14.70
2017-09-13T17:27:35.071Z,14.70
2017-09-13T17:30:03.183Z,14.60
2017-09-13T17:32:31.655Z,14.50
2017-09-13T17:35:00.140Z,14.40
2017-09-13T17:37:28.650Z,14.40
2017-09-13T17:39:56.726Z,14.30
2017-09-13T17:42:25.570Z,14.20
2017-09-13T17:44:53.684Z,14.20
2017-09-13T17:47:21.762Z,14.20
2017-09-13T17:49:49.835Z,14.20
2017-09-13T17:52:17.939Z,14.20
2017-09-13T17:54:46.064Z,14.20
2017-09-13T17:57:14.187Z,14.20
2017-09-13T17:59:42.270Z,14.20
2017-09-13T18:02:10.347Z,14.10
2017-09-13T18:04:39.219Z,14.00
2017-09-13T18:07:08.271Z,13.90
2017-09-13T18:09:36.367Z,13.90
2017-09-13T18:12:05.221Z,13.90
2017-09-13T18:14:34.095Z,13.80
2017-09-13T18:17:02.943Z,13.80
2017-09-13T18:19:31.042Z,13.70
2017-09-13T18:21:59.540Z,13.70
2017-09-13T18:24:28.395Z,13.70
2017-09-13T18:26:56.475Z,13.50
2017-09-13T18:29:24.775Z,13.40
2017-09-13T18:31:52.823Z,13.30
2017-09-13T18:34:20.904Z,13.30
2017-09-13T18:36:49.419Z,13.30
2017-09-13T18:39:18.270Z,13.30
2017-09-13T18:41:46.762Z,13.30
2017-09-13T18:44:15.259Z,13.30
2017-09-13T18:46:44.108Z,13.30
2017-09-13T18:49:12.233Z,13.20
2017-09-13T18:51:41.081Z,13.20
2017-09-13T18:54:09.161Z,13.20
2017-09-13T18:56:37.258Z,13.20
2017-09-13T18:59:06.115Z,13.20
2017-09-13T19:01:34.220Z,13.20
2017-09-13T19:04:02.715Z,13.30
2017-09-13T19:06:30.807Z,13.30
2017-09-13T19:08:59.334Z,13.40
2017-09-13T19:11:28.190Z,13.40
2017-09-13T19:13:56.703Z,13.40
2017-09-13T19:16:24.782Z,13.40
2017-09-13T19:18:52.859Z,13.30
2017-09-13T19:21:22.471Z,13.30
2017-09-13T19:23:50.579Z,13.30
2017-09-13T19:26:21.539Z,13.40
2017-09-13T19:28:50.427Z,13.40
2017-09-13T19:31:18.902Z,13.40
2017-09-13T19:33:47.755Z,13.40
2017-09-13T19:36:15.907Z,13.30
2017-09-13T19:38:43.988Z,13.30
2017-09-13T19:41:12.072Z,13.20
2017-09-13T19:43:40.587Z,13.30
2017-09-13T19:46:08.662Z,13.30
2017-09-13T19:48:36.747Z,13.20
2017-09-13T19:51:04.858Z,13.20
2017-09-13T19:53:33.708Z,13.20
2017-09-13T19:56:01.786Z,13.20
2017-09-13T19:58:30.844Z,13.30
2017-09-13T20:00:58.926Z,13.30
2017-09-13T20:03:27.004Z,13.30
2017-09-13T20:05:55.120Z,13.30
2017-09-13T20:08:23.202Z,13.30
2017-09-13T20:10:51.305Z,13.40
2017-09-13T20:13:19.426Z,13.40
2017-09-13T20:15:47.507Z,13.30
2017-09-13T20:18:16.355Z,13.20
2017-09-13T20:20:44.484Z,13.10
2017-09-13T20:23:12.569Z,13.10
2017-09-13T20:25:40.640Z,13.10
2017-09-13T20:28:08.764Z,13.10
2017-09-13T20:30:36.843Z,13.10
2017-09-13T20:33:04.924Z,13.10
2017-09-13T20:35:33.031Z,13.10
2017-09-13T20:38:01.870Z,13.20
2017-09-13T20:40:29.984Z,13.20
2017-09-13T20:42:58.823Z,13.00
2017-09-13T20:45:26.900Z,13.00
2017-09-13T20:47:55.011Z,13.00
2017-09-13T20:50:23.854Z,13.00
2017-09-13T20:52:51.955Z,13.00
2017-09-13T20:55:20.053Z,12.90
2017-09-13T20:57:48.939Z,13.00
2017-09-13T21:00:17.033Z,13.00
2017-09-13T21:02:45.505Z,13.00
2017-09-13T21:05:13.605Z,13.10
2017-09-13T21:07:41.694Z,13.00
2017-09-13T21:10:09.766Z,13.00
2017-09-13T21:12:38.255Z,13.10
2017-09-13T21:15:06.756Z,13.10
2017-09-13T21:17:34.837Z,13.00
2017-09-13T21:20:02.948Z,13.00
2017-09-13T21:22:31.019Z,13.00
2017-09-13T21:24:59.120Z,13.00
2017-09-13T21:27:27.211Z,13.10
2017-09-13T21:29:55.302Z,13.20
2017-09-13T21:32:24.167Z,13.20
2017-09-13T21:34:52.272Z,13.10
2017-09-13T21:37:21.120Z,13.20
2017-09-13T21:39:49.617Z,13.10
2017-09-13T21:42:17.730Z,13.10
2017-09-13T21:44:46.559Z,13.20
2017-09-13T21:47:14.646Z,13.20
2017-09-13T21:49:42.755Z,13.20
2017-09-13T21:52:10.835Z,13.20
2017-09-13T21:54:38.917Z,13.20
2017-09-13T21:57:07.520Z,13.20
2017-09-13T21:59:35.612Z,13.20
2017-09-13T22:02:03.694Z,13.20
2017-09-13T22:04:31.800Z,13.30
2017-09-13T22:07:00.643Z,13.20
2017-09-13T22:09:28.791Z,13.20
2017-09-13T22:11:56.884Z,13.10
2017-09-13T22:14:24.968Z,13.20
2017-09-13T22:16:53.083Z,13.20
2017-09-13T22:19:21.927Z,13.30
2017-09-13T22:21:50.012Z,13.30
2017-09-13T22:24:18.502Z,13.30
2017-09-13T22:26:47.396Z,13.20
2017-09-13T22:29:15.466Z,13.20
2017-09-13T22:31:44.310Z,13.20
2017-09-13T22:34:12.406Z,13.10
2017-09-13T22:36:40.515Z,13.20
2017-09-13T22:39:08.598Z,13.20
2017-09-13T22:41:36.700Z,13.10
2017-09-13T22:44:04.778Z,13.10
2017-09-13T22:46:32.891Z,13.00
2017-09-13T22:49:01.736Z,12.90
2017-09-13T22:51:29.816Z,12.90
2017-09-13T22:53:57.912Z,12.90
2017-09-13T22:56:26.007Z,12.90
2017-09-13T22:58:54.868Z,12.90
2017-09-13T23:01:22.990Z,12.80
2017-09-13T23:03:51.469Z,12.90
2017-09-13T23:06:19.551Z,12.90
2017-09-13T23:08:47.654Z,12.90
2017-09-13T23:11:15.747Z,12.90
2017-09-13T23:13:43.866Z,12.90
2017-09-13T23:16:11.935Z,12.80
2017-09-13T23:18:40.024Z,12.80
2017-09-13T23:21:08.121Z,12.80
2017-09-13T23:23:36.211Z,12.80
2017-09-13T23:26:04.363Z,12.80
2017-09-13T23:28:32.447Z,12.80
2017-09-13T23:31:00.527Z,12.80
2017-09-13T23:33:28.619Z,12.80
2017-09-13T23:35:57.458Z,12.80
2017-09-13T23:38:25.562Z,12.80
2017-09-13T23:40:53.630Z,12.80
2017-09-13T23:43:21.748Z,12.80
2017-09-13T23:45:49.836Z,12.80
2017-09-13T23:48:17.902Z,12.80
2017-09-13T23:50:46.429Z,12.80
2017-09-13T23:53:14.495Z,12.80
2017-09-13T23:55:42.573Z,12.80
2017-09-13T23:58:10.668Z,12.80
